sensor_id;sensor_type;location;lat;lon;timestamp;pressure;altitude;pressure_sealevel;temperature;humidity
70015;BME280;57358;51.094;6.760;2023-12-20T00:01:07;101045.75;;;7.33;100.00
70015;BME280;57358;51.094;6.760;2023-12-20T00:03:34;100929.00;;;6.60;100.00
70015;BME280;57358;51.094;6.760;2023-12-20T00:06:08;101108.22;;;7.66;100.00
70015;BME280;57358;51.094;6.760;2023-12-20T00:08:35;100994.00;;;6.93;100.00
70015;BME280;57358;51.094;6.760;2023-12-20T00:11:05;101024.00;;;7.08;100.00
70015;BME280;57358;51.094;6.760;2023-12-20T00:13:32;101083.28;;;7.31;100.00
70015;BME280;57358;51.094;6.760;2023-12-20T00:15:58;101083.28;;;7.31;100.00
70015;BME280;57358;51.094;6.760;2023-12-20T00:18:25;101032.56;;;7.11;100.00
70015;BME280;57358;51.094;6.760;2023-12-20T00:20:52;101038.56;;;7.13;100.00
70015;BME280;57358;51.094;6.760;2023-12-20T00:26:50;101043.72;;;7.16;100.00
70015;BME280;57358;51.094;6.760;2023-12-20T00:29:20;101029.09;;;7.11;100.00
70015;BME280;57358;51.094;6.760;2023-12-20T00:31:51;100760.72;;;5.40;100.00
70015;BME280;57358;51.094;6.760;2023-12-20T00:34:18;101013.44;;;6.84;100.00
70015;BME280;57358;51.094;6.760;2023-12-20T00:36:55;100957.50;;;6.38;100.00
70015;BME280;57358;51.094;6.760;2023-12-20T00:39:26;101023.38;;;6.71;100.00
70015;BME280;57358;51.094;6.760;2023-12-20T00:42:06;101078.91;;;7.03;100.00
70015;BME280;57358;51.094;6.760;2023-12-20T00:44:33;100831.47;;;5.53;100.00
70015;BME280;57358;51.094;6.760;2023-12-20T00:47:03;101087.50;;;7.07;100.00
70015;BME280;57358;51.094;6.760;2023-12-20T00:49:40;101077.03;;;7.08;100.00
70015;BME280;57358;51.094;6.760;2023-12-20T00:52:22;100940.47;;;6.26;100.00
70015;BME280;57358;51.094;6.760;2023-12-20T00:54:53;100970.56;;;6.36;100.00
70015;BME280;57358;51.094;6.760;2023-12-20T00:57:19;100924.47;;;6.09;100.00
70015;BME280;57358;51.094;6.760;2023-12-20T00:59:47;101051.75;;;6.82;100.00
70015;BME280;57358;51.094;6.760;2023-12-20T01:02:16;100843.28;;;5.65;100.00
70015;BME280;57358;51.094;6.760;2023-12-20T01:04:47;101038.56;;;6.87;100.00
70015;BME280;57358;51.094;6.760;2023-12-20T01:07:14;101024.38;;;6.67;100.00
70015;BME280;57358;51.094;6.760;2023-12-20T01:09:44;100988.06;;;6.61;100.00
70015;BME280;57358;51.094;6.760;2023-12-20T01:12:14;101038.13;;;7.01;100.00
70015;BME280;57358;51.094;6.760;2023-12-20T01:14:41;100996.50;;;6.69;100.00
70015;BME280;57358;51.094;6.760;2023-12-20T01:17:10;101034.47;;;6.79;100.00
70015;BME280;57358;51.094;6.760;2023-12-20T01:19:41;100992.47;;;6.59;100.00
70015;BME280;57358;51.094;6.760;2023-12-20T01:22:08;101019.22;;;6.66;100.00
70015;BME280;57358;51.094;6.760;2023-12-20T01:24:38;100846.88;;;5.60;100.00
70015;BME280;57358;51.094;6.760;2023-12-20T01:27:07;101014.91;;;6.65;100.00
70015;BME280;57358;51.094;6.760;2023-12-20T01:29:35;101009.59;;;6.68;100.00
70015;BME280;57358;51.094;6.760;2023-12-20T01:32:02;100993.19;;;6.64;100.00
70015;BME280;57358;51.094;6.760;2023-12-20T01:34:29;100962.75;;;6.36;100.00
70015;BME280;57358;51.094;6.760;2023-12-20T01:37:01;100977.44;;;6.39;100.00
70015;BME280;57358;51.094;6.760;2023-12-20T01:39:32;100989.28;;;6.49;100.00
70015;BME280;57358;51.094;6.760;2023-12-20T01:42:02;100979.78;;;6.48;100.00
70015;BME280;57358;51.094;6.760;2023-12-20T01:44:32;100983.06;;;6.53;100.00
70015;BME280;57358;51.094;6.760;2023-12-20T01:47:03;100971.72;;;6.56;100.00
70015;BME280;57358;51.094;6.760;2023-12-20T01:49:29;100962.97;;;6.57;100.00
70015;BME280;57358;51.094;6.760;2023-12-20T01:52:16;100942.09;;;6.30;100.00
70015;BME280;57358;51.094;6.760;2023-12-20T01:54:44;100936.63;;;6.38;100.00
70015;BME280;57358;51.094;6.760;2023-12-20T01:57:11;100961.28;;;6.28;100.00
70015;BME280;57358;51.094;6.760;2023-12-20T01:59:39;100939.03;;;6.16;100.00
70015;BME280;57358;51.094;6.760;2023-12-20T02:02:07;100658.50;;;4.46;100.00
70015;BME280;57358;51.094;6.760;2023-12-20T02:04:35;100943.63;;;6.08;100.00
70015;BME280;57358;51.094;6.760;2023-12-20T02:07:02;100862.50;;;5.60;100.00
70015;BME280;57358;51.094;6.760;2023-12-20T02:09:32;100777.28;;;5.06;100.00
70015;BME280;57358;51.094;6.760;2023-12-20T02:11:59;100931.63;;;5.71;100.00
70015;BME280;57358;51.094;6.760;2023-12-20T02:14:26;100957.28;;;5.85;100.00
70015;BME280;57358;51.094;6.760;2023-12-20T02:16:53;100824.56;;;5.20;100.00
70015;BME280;57358;51.094;6.760;2023-12-20T02:19:20;100914.19;;;5.73;100.00
70015;BME280;57358;51.094;6.760;2023-12-20T02:21:47;100712.31;;;4.42;100.00
70015;BME280;57358;51.094;6.760;2023-12-20T02:24:17;100960.56;;;5.60;100.00
70015;BME280;57358;51.094;6.760;2023-12-20T02:26:50;100939.97;;;5.51;100.00
70015;BME280;57358;51.094;6.760;2023-12-20T02:29:17;100946.13;;;5.48;100.00
70015;BME280;57358;51.094;6.760;2023-12-20T02:31:44;100943.66;;;5.44;100.00
70015;BME280;57358;51.094;6.760;2023-12-20T02:34:11;100965.13;;;5.52;100.00
70015;BME280;57358;51.094;6.760;2023-12-20T02:36:44;100982.19;;;5.64;100.00
70015;BME280;57358;51.094;6.760;2023-12-20T02:39:11;100971.41;;;5.43;100.00
70015;BME280;57358;51.094;6.760;2023-12-20T02:41:41;100979.47;;;5.67;100.00
70015;BME280;57358;51.094;6.760;2023-12-20T02:44:15;100980.31;;;5.67;100.00
70015;BME280;57358;51.094;6.760;2023-12-20T02:46:45;100977.78;;;5.66;100.00
70015;BME280;57358;51.094;6.760;2023-12-20T02:49:12;100964.03;;;5.60;100.00
70015;BME280;57358;51.094;6.760;2023-12-20T02:51:40;100750.22;;;4.15;100.00
70015;BME280;57358;51.094;6.760;2023-12-20T02:54:10;100667.03;;;3.85;100.00
70015;BME280;57358;51.094;6.760;2023-12-20T02:56:37;100935.38;;;5.60;100.00
70015;BME280;57358;51.094;6.760;2023-12-20T02:59:13;100869.00;;;5.13;100.00
70015;BME280;57358;51.094;6.760;2023-12-20T03:01:45;100959.09;;;5.81;100.00
70015;BME280;57358;51.094;6.760;2023-12-20T03:04:12;100929.94;;;5.70;100.00
70015;BME280;57358;51.094;6.760;2023-12-20T03:06:41;100748.13;;;4.64;100.00
70015;BME280;57358;51.094;6.760;2023-12-20T03:09:08;100740.50;;;4.57;100.00
70015;BME280;57358;51.094;6.760;2023-12-20T03:11:35;100729.31;;;4.54;100.00
70015;BME280;57358;51.094;6.760;2023-12-20T03:14:02;100930.69;;;5.73;100.00
70015;BME280;57358;51.094;6.760;2023-12-20T03:16:29;100930.63;;;5.75;100.00
70015;BME280;57358;51.094;6.760;2023-12-20T03:19:00;100671.44;;;4.16;100.00
70015;BME280;57358;51.094;6.760;2023-12-20T03:21:27;100922.22;;;5.65;100.00
70015;BME280;57358;51.094;6.760;2023-12-20T03:23:54;100927.28;;;5.71;100.00
70015;BME280;57358;51.094;6.760;2023-12-20T03:26:24;100911.06;;;5.62;100.00
70015;BME280;57358;51.094;6.760;2023-12-20T03:28:51;100716.72;;;4.38;100.00
70015;BME280;57358;51.094;6.760;2023-12-20T03:31:22;100905.72;;;5.66;100.00
70015;BME280;57358;51.094;6.760;2023-12-20T03:33:49;100646.56;;;4.07;100.00
70015;BME280;57358;51.094;6.760;2023-12-20T03:36:19;100897.00;;;5.67;100.00
70015;BME280;57358;51.094;6.760;2023-12-20T03:38:46;100897.09;;;5.64;100.00
70015;BME280;57358;51.094;6.760;2023-12-20T03:41:13;100896.38;;;5.59;100.00
70015;BME280;57358;51.094;6.760;2023-12-20T03:43:43;100659.31;;;4.15;100.00
70015;BME280;57358;51.094;6.760;2023-12-20T03:46:10;100920.03;;;5.51;100.00
70015;BME280;57358;51.094;6.760;2023-12-20T03:48:40;100895.81;;;5.49;100.00
70015;BME280;57358;51.094;6.760;2023-12-20T03:51:08;100861.97;;;5.16;100.00
70015;BME280;57358;51.094;6.760;2023-12-20T03:53:36;100870.16;;;5.35;100.00
70015;BME280;57358;51.094;6.760;2023-12-20T03:56:06;100920.75;;;5.56;100.00
70015;BME280;57358;51.094;6.760;2023-12-20T03:58:42;100894.84;;;5.52;100.00
70015;BME280;57358;51.094;6.760;2023-12-20T04:01:10;100674.78;;;4.21;100.00
70015;BME280;57358;51.094;6.760;2023-12-20T04:03:39;100897.31;;;5.56;100.00
70015;BME280;57358;51.094;6.760;2023-12-20T04:06:09;100899.41;;;5.44;100.00
70015;BME280;57358;51.094;6.760;2023-12-20T04:08:42;100870.56;;;5.51;100.00
70015;BME280;57358;51.094;6.760;2023-12-20T04:11:11;100749.81;;;4.65;100.00
70015;BME280;57358;51.094;6.760;2023-12-20T04:13:38;100904.91;;;5.64;100.00
70015;BME280;57358;51.094;6.760;2023-12-20T04:16:05;100883.28;;;5.62;100.00
70015;BME280;57358;51.094;6.760;2023-12-20T04:18:32;100887.00;;;5.53;100.00
70015;BME280;57358;51.094;6.760;2023-12-20T04:21:11;100876.06;;;5.72;100.00
70015;BME280;57358;51.094;6.760;2023-12-20T04:23:41;100729.44;;;4.80;100.00
70015;BME280;57358;51.094;6.760;2023-12-20T04:26:13;100870.94;;;5.69;100.00
70015;BME280;57358;51.094;6.760;2023-12-20T04:28:40;100871.09;;;5.63;100.00
70015;BME280;57358;51.094;6.760;2023-12-20T04:31:20;100890.66;;;5.77;100.00
70015;BME280;57358;51.094;6.760;2023-12-20T04:34:02;100881.22;;;5.73;100.00
70015;BME280;57358;51.094;6.760;2023-12-20T04:36:29;100875.09;;;5.74;100.00
70015;BME280;57358;51.094;6.760;2023-12-20T04:38:56;100866.84;;;5.60;100.00
70015;BME280;57358;51.094;6.760;2023-12-20T04:41:25;100609.50;;;4.00;100.00
70015;BME280;57358;51.094;6.760;2023-12-20T04:43:58;100825.28;;;5.27;100.00
70015;BME280;57358;51.094;6.760;2023-12-20T04:46:25;100801.97;;;5.23;100.00
70015;BME280;57358;51.094;6.760;2023-12-20T04:48:55;100682.09;;;4.38;100.00
70015;BME280;57358;51.094;6.760;2023-12-20T04:51:32;100830.16;;;5.38;100.00
70015;BME280;57358;51.094;6.760;2023-12-20T04:54:03;100878.91;;;5.63;100.00
70015;BME280;57358;51.094;6.760;2023-12-20T04:56:38;100848.06;;;5.49;100.00
70015;BME280;57358;51.094;6.760;2023-12-20T04:59:11;100855.34;;;5.37;100.00
70015;BME280;57358;51.094;6.760;2023-12-20T05:01:41;100863.16;;;5.37;100.00
70015;BME280;57358;51.094;6.760;2023-12-20T05:04:08;100665.25;;;4.20;100.00
70015;BME280;57358;51.094;6.760;2023-12-20T05:06:41;100859.03;;;5.29;100.00
70015;BME280;57358;51.094;6.760;2023-12-20T05:09:09;100902.25;;;5.34;100.00
70015;BME280;57358;51.094;6.760;2023-12-20T05:11:37;100651.03;;;4.00;100.00
70015;BME280;57358;51.094;6.760;2023-12-20T05:14:04;100887.19;;;5.47;100.00
70015;BME280;57358;51.094;6.760;2023-12-20T05:16:35;100893.25;;;5.46;100.00
70015;BME280;57358;51.094;6.760;2023-12-20T05:19:02;100565.38;;;3.68;100.00
70015;BME280;57358;51.094;6.760;2023-12-20T05:21:35;100613.06;;;3.96;100.00
70015;BME280;57358;51.094;6.760;2023-12-20T05:24:02;100855.25;;;5.40;100.00
70015;BME280;57358;51.094;6.760;2023-12-20T05:26:38;100817.13;;;5.08;100.00
70015;BME280;57358;51.094;6.760;2023-12-20T05:29:07;100665.13;;;4.25;100.00
70015;BME280;57358;51.094;6.760;2023-12-20T05:31:36;100668.75;;;4.19;100.00
70015;BME280;57358;51.094;6.760;2023-12-20T05:34:05;100860.88;;;5.56;100.00
70015;BME280;57358;51.094;6.760;2023-12-20T05:36:36;100842.09;;;5.45;100.00
70015;BME280;57358;51.094;6.760;2023-12-20T05:39:06;100631.78;;;4.09;100.00
70015;BME280;57358;51.094;6.760;2023-12-20T05:41:34;100837.72;;;5.47;100.00
70015;BME280;57358;51.094;6.760;2023-12-20T05:44:01;100842.66;;;5.56;100.00
70015;BME280;57358;51.094;6.760;2023-12-20T05:46:28;100586.13;;;4.00;100.00
70015;BME280;57358;51.094;6.760;2023-12-20T05:48:55;100815.09;;;5.49;100.00
70015;BME280;57358;51.094;6.760;2023-12-20T05:51:27;100824.25;;;5.63;100.00
70015;BME280;57358;51.094;6.760;2023-12-20T05:53:54;100825.00;;;5.66;100.00
70015;BME280;57358;51.094;6.760;2023-12-20T05:56:21;100835.59;;;5.60;100.00
70015;BME280;57358;51.094;6.760;2023-12-20T05:58:50;100795.25;;;5.45;100.00
70015;BME280;57358;51.094;6.760;2023-12-20T06:01:17;100823.19;;;5.70;100.00
70015;BME280;57358;51.094;6.760;2023-12-20T06:03:44;100745.53;;;5.25;100.00
70015;BME280;57358;51.094;6.760;2023-12-20T06:06:12;100813.78;;;5.64;100.00
70015;BME280;57358;51.094;6.760;2023-12-20T06:08:45;100828.47;;;5.67;100.00
70015;BME280;57358;51.094;6.760;2023-12-20T06:11:12;100747.16;;;5.29;100.00
70015;BME280;57358;51.094;6.760;2023-12-20T06:13:42;100836.09;;;5.73;100.00
70015;BME280;57358;51.094;6.760;2023-12-20T06:16:09;100569.16;;;4.20;100.00
70015;BME280;57358;51.094;6.760;2023-12-20T06:18:36;100659.47;;;4.73;100.00
70015;BME280;57358;51.094;6.760;2023-12-20T06:21:04;100813.41;;;5.76;100.00
70015;BME280;57358;51.094;6.760;2023-12-20T06:23:31;100832.38;;;5.82;100.00
70015;BME280;57358;51.094;6.760;2023-12-20T06:25:57;100636.88;;;4.75;100.00
70015;BME280;57358;51.094;6.760;2023-12-20T06:28:24;100827.59;;;5.97;100.00
70015;BME280;57358;51.094;6.760;2023-12-20T06:30:51;100803.41;;;5.91;100.00
70015;BME280;57358;51.094;6.760;2023-12-20T06:33:19;100799.94;;;5.92;100.00
70015;BME280;57358;51.094;6.760;2023-12-20T06:35:54;100541.03;;;4.34;100.00
70015;BME280;57358;51.094;6.760;2023-12-20T06:38:20;100731.75;;;5.51;100.00
70015;BME280;57358;51.094;6.760;2023-12-20T06:40:47;100544.53;;;4.33;100.00
70015;BME280;57358;51.094;6.760;2023-12-20T06:43:14;100744.06;;;5.74;100.00
70015;BME280;57358;51.094;6.760;2023-12-20T06:46:01;100548.22;;;4.56;100.00
70015;BME280;57358;51.094;6.760;2023-12-20T06:48:28;100784.91;;;6.02;100.00
70015;BME280;57358;51.094;6.760;2023-12-20T06:51:00;100718.09;;;5.71;100.00
70015;BME280;57358;51.094;6.760;2023-12-20T06:53:31;100770.16;;;6.01;100.00
70015;BME280;57358;51.094;6.760;2023-12-20T06:56:01;100618.44;;;5.12;100.00
70015;BME280;57358;51.094;6.760;2023-12-20T06:58:27;100706.19;;;5.64;100.00
70015;BME280;57358;51.094;6.760;2023-12-20T07:00:54;100701.59;;;5.72;100.00
70015;BME280;57358;51.094;6.760;2023-12-20T07:03:26;100718.72;;;5.79;100.00
70015;BME280;57358;51.094;6.760;2023-12-20T07:05:53;100525.53;;;4.61;100.00
70015;BME280;57358;51.094;6.760;2023-12-20T07:08:20;100768.31;;;6.04;100.00
70015;BME280;57358;51.094;6.760;2023-12-20T07:10:47;100448.03;;;4.17;100.00
70015;BME280;57358;51.094;6.760;2023-12-20T07:13:14;100778.13;;;5.96;100.00
70015;BME280;57358;51.094;6.760;2023-12-20T07:15:41;100718.31;;;5.65;100.00
70015;BME280;57358;51.094;6.760;2023-12-20T07:18:10;100648.81;;;5.40;100.00
70015;BME280;57358;51.094;6.760;2023-12-20T07:20:40;100708.22;;;5.82;100.00
70015;BME280;57358;51.094;6.760;2023-12-20T07:23:08;100726.44;;;5.82;100.00
70015;BME280;57358;51.094;6.760;2023-12-20T07:25:38;100703.88;;;5.81;100.00
70015;BME280;57358;51.094;6.760;2023-12-20T07:28:08;100676.75;;;5.62;100.00
70015;BME280;57358;51.094;6.760;2023-12-20T07:30:34;100501.00;;;4.70;100.00
70015;BME280;57358;51.094;6.760;2023-12-20T07:33:01;100517.94;;;4.83;100.00
70015;BME280;57358;51.094;6.760;2023-12-20T07:35:44;100489.41;;;4.80;100.00
70015;BME280;57358;51.094;6.760;2023-12-20T07:38:18;100408.38;;;4.11;100.00
70015;BME280;57358;51.094;6.760;2023-12-20T07:40:45;100710.41;;;5.96;100.00
70015;BME280;57358;51.094;6.760;2023-12-20T07:43:17;100461.31;;;4.36;100.00
70015;BME280;57358;51.094;6.760;2023-12-20T07:48:39;100281.75;;;3.34;100.00
70015;BME280;57358;51.094;6.760;2023-12-20T07:51:29;100407.16;;;3.94;100.00
70015;BME280;57358;51.094;6.760;2023-12-20T07:54:09;100445.28;;;4.50;100.00
70015;BME280;57358;51.094;6.760;2023-12-20T07:56:39;100565.88;;;5.29;100.00
70015;BME280;57358;51.094;6.760;2023-12-20T07:59:16;100574.22;;;5.12;100.00
70015;BME280;57358;51.094;6.760;2023-12-20T08:02:06;100573.53;;;5.07;100.00
70015;BME280;57358;51.094;6.760;2023-12-20T08:04:41;100617.22;;;5.51;100.00
70015;BME280;57358;51.094;6.760;2023-12-20T08:07:37;100641.88;;;5.39;100.00
70015;BME280;57358;51.094;6.760;2023-12-20T08:10:07;100701.38;;;6.06;100.00
70015;BME280;57358;51.094;6.760;2023-12-20T08:12:40;100567.22;;;5.14;100.00
70015;BME280;57358;51.094;6.760;2023-12-20T08:15:15;100724.66;;;6.11;100.00
70015;BME280;57358;51.094;6.760;2023-12-20T08:18:08;100277.84;;;3.51;100.00
70015;BME280;57358;51.094;6.760;2023-12-20T08:20:56;100674.53;;;6.04;100.00
70015;BME280;57358;51.094;6.760;2023-12-20T08:23:29;100679.56;;;6.09;100.00
70015;BME280;57358;51.094;6.760;2023-12-20T08:25:58;100578.28;;;5.48;100.00
70015;BME280;57358;51.094;6.760;2023-12-20T08:28:25;100412.69;;;4.40;100.00
70015;BME280;57358;51.094;6.760;2023-12-20T08:30:55;100416.13;;;4.40;100.00
70015;BME280;57358;51.094;6.760;2023-12-20T08:33:21;100417.34;;;4.57;100.00
70015;BME280;57358;51.094;6.760;2023-12-20T08:35:54;100594.97;;;5.67;100.00
70015;BME280;57358;51.094;6.760;2023-12-20T08:38:21;100503.19;;;5.10;100.00
70015;BME280;57358;51.094;6.760;2023-12-20T08:40:48;100612.06;;;5.76;100.00
70015;BME280;57358;51.094;6.760;2023-12-20T08:43:15;100337.66;;;4.03;100.00
70015;BME280;57358;51.094;6.760;2023-12-20T08:45:44;100461.91;;;4.73;100.00
70015;BME280;57358;51.094;6.760;2023-12-20T08:48:11;100451.47;;;4.74;100.00
70015;BME280;57358;51.094;6.760;2023-12-20T08:50:37;100661.09;;;5.90;100.00
70015;BME280;57358;51.094;6.760;2023-12-20T08:53:05;100403.06;;;4.44;100.00
70015;BME280;57358;51.094;6.760;2023-12-20T08:55:32;100558.47;;;5.44;100.00
70015;BME280;57358;51.094;6.760;2023-12-20T08:57:59;100662.72;;;6.19;100.00
70015;BME280;57358;51.094;6.760;2023-12-20T09:00:30;100676.53;;;6.21;100.00
70015;BME280;57358;51.094;6.760;2023-12-20T09:02:56;100585.66;;;5.62;100.00
70015;BME280;57358;51.094;6.760;2023-12-20T09:05:23;100619.41;;;5.90;100.00
70015;BME280;57358;51.094;6.760;2023-12-20T09:07:49;100672.19;;;6.22;100.00
70015;BME280;57358;51.094;6.760;2023-12-20T09:10:22;100644.06;;;6.06;100.00
70015;BME280;57358;51.094;6.760;2023-12-20T09:12:52;100603.25;;;5.80;100.00
70015;BME280;57358;51.094;6.760;2023-12-20T09:15:24;100663.25;;;6.29;100.00
70015;BME280;57358;51.094;6.760;2023-12-20T09:17:51;100593.06;;;5.99;100.00
70015;BME280;57358;51.094;6.760;2023-12-20T09:20:21;100452.91;;;5.10;100.00
70015;BME280;57358;51.094;6.760;2023-12-20T09:22:50;100630.81;;;6.37;100.00
70015;BME280;57358;51.094;6.760;2023-12-20T09:25:16;100605.06;;;6.28;100.00
70015;BME280;57358;51.094;6.760;2023-12-20T09:27:44;100572.31;;;6.21;100.00
70015;BME280;57358;51.094;6.760;2023-12-20T09:30:12;100597.66;;;6.41;100.00
70015;BME280;57358;51.094;6.760;2023-12-20T09:32:50;100593.44;;;6.37;100.00
70015;BME280;57358;51.094;6.760;2023-12-20T09:35:17;100424.56;;;5.02;100.00
70015;BME280;57358;51.094;6.760;2023-12-20T09:37:44;100389.25;;;4.95;100.00
70015;BME280;57358;51.094;6.760;2023-12-20T09:40:13;100355.06;;;4.55;100.00
70015;BME280;57358;51.094;6.760;2023-12-20T09:42:51;100609.31;;;6.31;100.00
70015;BME280;57358;51.094;6.760;2023-12-20T09:45:20;100583.94;;;6.36;100.00
70015;BME280;57358;51.094;6.760;2023-12-20T09:47:53;100530.81;;;5.91;100.00
70015;BME280;57358;51.094;6.760;2023-12-20T09:50:21;100524.38;;;5.76;100.00
70015;BME280;57358;51.094;6.760;2023-12-20T09:52:51;100334.19;;;4.57;100.00
70015;BME280;57358;51.094;6.760;2023-12-20T09:55:19;100626.50;;;6.36;100.00
70015;BME280;57358;51.094;6.760;2023-12-20T09:57:47;100599.63;;;6.34;100.00
70015;BME280;57358;51.094;6.760;2023-12-20T10:00:15;100641.13;;;6.41;100.00
70015;BME280;57358;51.094;6.760;2023-12-20T10:02:56;100631.66;;;6.38;100.00
70015;BME280;57358;51.094;6.760;2023-12-20T10:05:30;100615.06;;;6.41;100.00
70015;BME280;57358;51.094;6.760;2023-12-20T10:07:57;100619.16;;;6.48;100.00
70015;BME280;57358;51.094;6.760;2023-12-20T10:10:25;100615.78;;;6.44;100.00
70015;BME280;57358;51.094;6.760;2023-12-20T10:13:10;100446.59;;;5.42;100.00
70015;BME280;57358;51.094;6.760;2023-12-20T10:15:38;100613.47;;;6.60;100.00
70015;BME280;57358;51.094;6.760;2023-12-20T10:18:05;100593.66;;;6.56;100.00
70015;BME280;57358;51.094;6.760;2023-12-20T10:20:32;100386.94;;;5.37;100.00
70015;BME280;57358;51.094;6.760;2023-12-20T10:23:00;100500.50;;;6.14;100.00
70015;BME280;57358;51.094;6.760;2023-12-20T10:25:30;100343.28;;;5.20;100.00
70015;BME280;57358;51.094;6.760;2023-12-20T10:28:12;100151.59;;;4.03;100.00
70015;BME280;57358;51.094;6.760;2023-12-20T10:30:41;100592.56;;;6.62;100.00
70015;BME280;57358;51.094;6.760;2023-12-20T10:33:09;100347.31;;;5.29;100.00
70015;BME280;57358;51.094;6.760;2023-12-20T10:35:38;100560.84;;;6.72;100.00
70015;BME280;57358;51.094;6.760;2023-12-20T10:38:07;100364.59;;;5.55;100.00
70015;BME280;57358;51.094;6.760;2023-12-20T10:40:36;100129.22;;;4.24;100.00
70015;BME280;57358;51.094;6.760;2023-12-20T10:43:05;100190.59;;;4.52;100.00
70015;BME280;57358;51.094;6.760;2023-12-20T10:45:32;100466.50;;;6.17;100.00
70015;BME280;57358;51.094;6.760;2023-12-20T10:48:04;99664.63;;;1.33;100.00
70015;BME280;57358;51.094;6.760;2023-12-20T10:50:38;99587.78;;;0.54;100.00
70015;BME280;57358;51.094;6.760;2023-12-20T10:53:09;100326.66;;;5.25;100.00
70015;BME280;57358;51.094;6.760;2023-12-20T10:55:40;100369.41;;;5.66;100.00
70015;BME280;57358;51.094;6.760;2023-12-20T10:58:17;99846.03;;;1.77;100.00
70015;BME280;57358;51.094;6.760;2023-12-20T11:00:48;100277.34;;;4.48;100.00
70015;BME280;57358;51.094;6.760;2023-12-20T11:03:25;99962.41;;;2.93;100.00
70015;BME280;57358;51.094;6.760;2023-12-20T11:05:59;100401.94;;;5.78;100.00
70015;BME280;57358;51.094;6.760;2023-12-20T11:08:35;100563.28;;;6.77;100.00
70015;BME280;57358;51.094;6.760;2023-12-20T11:11:23;100549.16;;;6.83;100.00
70015;BME280;57358;51.094;6.760;2023-12-20T11:14:06;100320.34;;;5.32;100.00
70015;BME280;57358;51.094;6.760;2023-12-20T11:16:38;100532.47;;;6.87;100.00
70015;BME280;57358;51.094;6.760;2023-12-20T11:19:17;100269.94;;;5.34;100.00
70015;BME280;57358;51.094;6.760;2023-12-20T11:21:45;100401.47;;;5.90;100.00
70015;BME280;57358;51.094;6.760;2023-12-20T11:24:13;100503.69;;;6.44;100.00
70015;BME280;57358;51.094;6.760;2023-12-20T11:26:47;100475.91;;;6.43;100.00
70015;BME280;57358;51.094;6.760;2023-12-20T11:29:37;100367.41;;;5.73;100.00
70015;BME280;57358;51.094;6.760;2023-12-20T11:34:54;100303.19;;;5.26;100.00
70015;BME280;57358;51.094;6.760;2023-12-20T11:37:21;100425.03;;;6.11;100.00
70015;BME280;57358;51.094;6.760;2023-12-20T11:39:55;100506.88;;;6.52;100.00
70015;BME280;57358;51.094;6.760;2023-12-20T11:42:25;100407.19;;;5.76;100.00
70015;BME280;57358;51.094;6.760;2023-12-20T11:44:53;100533.69;;;6.32;100.00
70015;BME280;57358;51.094;6.760;2023-12-20T11:47:19;100529.94;;;6.39;100.00
70015;BME280;57358;51.094;6.760;2023-12-20T11:49:47;100273.69;;;4.78;100.00
70015;BME280;57358;51.094;6.760;2023-12-20T11:52:18;100491.63;;;5.94;100.00
70015;BME280;57358;51.094;6.760;2023-12-20T11:54:47;100580.00;;;6.71;100.00
70015;BME280;57358;51.094;6.760;2023-12-20T11:57:14;100606.16;;;6.70;100.00
70015;BME280;57358;51.094;6.760;2023-12-20T11:59:42;100614.94;;;6.67;100.00
70015;BME280;57358;51.094;6.760;2023-12-20T12:02:11;100594.06;;;6.67;100.00
70015;BME280;57358;51.094;6.760;2023-12-20T12:04:40;100614.69;;;6.73;100.00
70015;BME280;57358;51.094;6.760;2023-12-20T12:07:10;100375.03;;;5.30;100.00
70015;BME280;57358;51.094;6.760;2023-12-20T12:09:40;100595.56;;;6.74;100.00
70015;BME280;57358;51.094;6.760;2023-12-20T12:12:07;100586.72;;;6.55;100.00
70015;BME280;57358;51.094;6.760;2023-12-20T12:14:38;100453.19;;;5.77;100.00
70015;BME280;57358;51.094;6.760;2023-12-20T12:17:04;100472.06;;;5.83;100.00
70015;BME280;57358;51.094;6.760;2023-12-20T12:19:31;100464.59;;;5.98;100.00
70015;BME280;57358;51.094;6.760;2023-12-20T12:24:43;100414.50;;;5.67;100.00
70015;BME280;57358;51.094;6.760;2023-12-20T12:27:11;100600.53;;;6.81;100.00
70015;BME280;57358;51.094;6.760;2023-12-20T12:29:38;100359.72;;;5.21;100.00
70015;BME280;57358;51.094;6.760;2023-12-20T12:32:06;100616.47;;;6.73;100.00
70015;BME280;57358;51.094;6.760;2023-12-20T12:34:39;100576.47;;;6.50;100.00
70015;BME280;57358;51.094;6.760;2023-12-20T12:37:08;100514.56;;;5.83;100.00
70015;BME280;57358;51.094;6.760;2023-12-20T12:39:34;100571.94;;;6.07;100.00
70015;BME280;57358;51.094;6.760;2023-12-20T12:42:07;100629.00;;;6.63;100.00
70015;BME280;57358;51.094;6.760;2023-12-20T12:44:33;100444.72;;;5.47;100.00
70015;BME280;57358;51.094;6.760;2023-12-20T12:47:00;100583.31;;;6.29;100.00
70015;BME280;57358;51.094;6.760;2023-12-20T12:49:29;100456.47;;;5.32;100.00
70015;BME280;57358;51.094;6.760;2023-12-20T12:51:56;100526.13;;;5.76;100.00
70015;BME280;57358;51.094;6.760;2023-12-20T12:54:30;100402.38;;;4.92;100.00
70015;BME280;57358;51.094;6.760;2023-12-20T12:56:56;100695.91;;;6.64;100.00
70015;BME280;57358;51.094;6.760;2023-12-20T12:59:25;100728.34;;;6.81;100.00
70015;BME280;57358;51.094;6.760;2023-12-20T13:01:54;100331.47;;;4.87;100.00
70015;BME280;57358;51.094;6.760;2023-12-20T13:04:30;100652.78;;;7.01;100.00
70015;BME280;57358;51.094;6.760;2023-12-20T13:07:00;100438.78;;;5.91;100.00
70015;BME280;57358;51.094;6.760;2023-12-20T13:09:30;100634.13;;;7.12;100.00
70015;BME280;57358;51.094;6.760;2023-12-20T13:12:06;100504.69;;;6.42;100.00
70015;BME280;57358;51.094;6.760;2023-12-20T13:14:34;100607.06;;;7.14;100.00
70015;BME280;57358;51.094;6.760;2023-12-20T13:17:01;100541.56;;;6.76;100.00